createdAt,value
2022-10-12T00:00:31.553Z,2.08
2022-10-12T00:10:33.070Z,1.98
2022-10-12T00:20:34.546Z,1.95
2022-10-12T00:30:37.606Z,1.98
2022-10-12T00:40:38.979Z,1.88
2022-10-12T00:50:40.356Z,1.60
2022-10-12T01:00:41.845Z,2.08
2022-10-12T01:10:43.258Z,2.22
2022-10-12T01:20:53.744Z,1.98
2022-10-12T01:31:02.814Z,2.50
2022-10-12T01:51:55.716Z,2.00
2022-10-12T02:02:18.643Z,1.88
2022-10-12T02:12:21.175Z,1.55
2022-10-12T02:22:23.909Z,1.75
2022-10-12T02:32:49.975Z,2.08
2022-10-12T02:43:10.777Z,2.78
2022-10-12T02:53:13.009Z,2.03
2022-10-12T03:03:14.490Z,2.15
2022-10-12T03:13:15.964Z,1.88
2022-10-12T03:23:17.349Z,1.85
2022-10-12T03:33:19.330Z,1.42
2022-10-12T03:43:20.705Z,1.42
2022-10-12T03:53:22.191Z,1.38
2022-10-12T04:03:23.552Z,1.70
2022-10-12T04:13:25.094Z,2.10
2022-10-12T04:23:26.564Z,1.95
2022-10-12T04:33:28.088Z,2.28
2022-10-12T04:43:29.497Z,1.65
2022-10-12T04:53:31.439Z,1.38
2022-10-12T05:03:32.971Z,1.33
2022-10-12T05:13:34.362Z,1.50
2022-10-12T05:23:35.878Z,1.92
2022-10-12T05:33:37.314Z,2.08
2022-10-12T05:43:38.692Z,1.52
2022-10-12T05:53:40.053Z,1.75
2022-10-12T06:03:41.489Z,1.58
2022-10-12T06:13:42.864Z,1.50
2022-10-12T06:23:44.260Z,1.95
2022-10-12T06:33:45.818Z,1.77
2022-10-12T06:43:47.183Z,1.10
2022-10-12T06:53:48.542Z,1.45
2022-10-12T07:03:50.040Z,1.75
2022-10-12T07:13:51.407Z,1.92
2022-10-12T07:23:52.980Z,1.42
2022-10-12T07:33:54.539Z,1.65
2022-10-12T07:43:56.652Z,2.13
2022-10-12T07:54:00.038Z,1.23
2022-10-12T08:04:02.205Z,2.03
2022-10-12T08:14:03.774Z,1.08
2022-10-12T08:24:05.400Z,1.40
2022-10-12T08:34:06.893Z,1.45
2022-10-12T08:44:23.398Z,1.02
2022-10-12T08:54:27.401Z,1.42
2022-10-12T09:04:52.614Z,1.50
2022-10-12T09:14:57.269Z,1.67
2022-10-12T09:24:58.786Z,1.08
2022-10-12T09:35:00.196Z,1.38
2022-10-12T09:45:03.143Z,1.92
2022-10-12T09:55:23.902Z,1.30
2022-10-12T10:05:35.072Z,1.80
2022-10-12T10:15:39.041Z,1.80
2022-10-12T10:25:40.423Z,1.85
2022-10-12T10:36:02.654Z,1.73
2022-10-12T10:46:04.137Z,1.80
2022-10-12T10:56:07.881Z,2.20
2022-10-12T11:06:17.861Z,1.52
2022-10-12T11:16:51.182Z,2.22
2022-10-12T11:26:57.003Z,1.33
2022-10-12T11:37:18.852Z,1.98
2022-10-12T11:47:36.195Z,1.92
2022-10-12T11:57:37.821Z,1.83
2022-10-12T12:07:45.368Z,1.85
2022-10-12T12:18:04.315Z,1.55
2022-10-12T12:28:16.319Z,2.17
2022-10-12T12:38:22.009Z,1.52
2022-10-12T12:48:38.598Z,2.83
2022-10-12T12:58:54.540Z,2.45
2022-10-12T13:09:20.217Z,2.20
2022-10-12T13:19:22.850Z,2.85
2022-10-12T13:29:36.559Z,2.65
2022-10-12T13:39:43.177Z,2.05
2022-10-12T13:49:44.662Z,2.63
2022-10-12T13:59:46.047Z,2.58
2022-10-12T14:20:27.872Z,3.28
2022-10-12T14:30:34.806Z,3.38
2022-10-12T14:40:39.223Z,3.70
2022-10-12T14:50:40.666Z,4.32
2022-10-12T15:00:42.102Z,3.45
2022-10-12T15:10:43.572Z,3.17
2022-10-12T15:20:49.431Z,2.80
2022-10-12T15:31:15.851Z,2.97
2022-10-12T15:41:21.620Z,2.90
2022-10-12T15:51:23.914Z,3.67
2022-10-12T16:01:25.390Z,2.83
2022-10-12T16:11:29.731Z,2.65
2022-10-12T16:21:33.612Z,2.60
2022-10-12T16:31:35.055Z,2.42
2022-10-12T16:41:36.771Z,3.28
2022-10-12T16:51:38.792Z,3.22
2022-10-12T17:01:41.387Z,2.70
2022-10-12T17:11:42.780Z,2.75
2022-10-12T17:21:44.552Z,2.78
2022-10-12T17:31:46.265Z,3.88
2022-10-12T17:41:47.877Z,3.35
2022-10-12T17:51:50.757Z,2.85
2022-10-12T18:01:52.560Z,3.70
2022-10-12T18:11:54.312Z,3.60
2022-10-12T18:21:58.306Z,4.63
2022-10-12T18:32:00.709Z,4.40
2022-10-12T18:42:02.101Z,4.00
2022-10-12T18:52:03.743Z,4.18
2022-10-12T19:02:05.352Z,4.32
2022-10-12T19:12:16.445Z,3.67
2022-10-12T19:22:18.339Z,3.88
2022-10-12T19:32:23.292Z,4.63
2022-10-12T19:42:24.678Z,4.68
2022-10-12T19:52:26.191Z,4.30
2022-10-12T20:02:27.625Z,4.43
2022-10-12T20:12:29.051Z,4.80
2022-10-12T20:22:33.376Z,4.75
2022-10-12T20:32:37.053Z,4.35
2022-10-12T20:42:38.543Z,4.50
2022-10-12T20:52:45.313Z,5.53
2022-10-12T21:02:46.710Z,5.07
2022-10-12T21:12:48.260Z,4.82
2022-10-12T21:22:49.828Z,5.22
2022-10-12T21:32:51.786Z,4.93
2022-10-12T21:42:53.176Z,4.82
2022-10-12T21:53:00.008Z,6.50
2022-10-12T22:03:01.761Z,7.43
2022-10-12T22:13:03.140Z,6.07
2022-10-12T22:23:08.219Z,6.38
2022-10-12T22:33:09.926Z,5.88
2022-10-12T22:43:11.557Z,6.90
2022-10-12T22:53:13.074Z,5.85
2022-10-12T23:03:14.568Z,6.70
2022-10-12T23:13:16.073Z,7.20
2022-10-12T23:23:17.698Z,6.85
2022-10-12T23:33:19.317Z,7.65
2022-10-12T23:43:20.799Z,6.20
2022-10-12T23:53:22.701Z,6.45
